ダーウィン の空港の天気 - METARとTAF

ダーウィン国際空港 ( YPDN / DRW ) - オーストラリア ノーザンテリトリーダーウィン
飛行場実況気象(Metar)
観測時間06/24 19:00 ACST (06/24 09:30 UTC)
風向・風速北 2m/s
視程10km以上
天気現象
なし
気温22℃
湿度53%
気圧1015hPa
METARYPDN 240930Z 01004KT CAVOK 22/12 Q1015 FM1100 14005KT 9999 FU NSC
過去の天気等 Google飛行場航空写真 Wunderground天気予報

過去48時間のMETAR

飛行場予報(TAF)
発表時間: 6/24 14:35 ACST (6/24 05:05 UTC)
予報対象時間: 24日15時 ACST ~ 25日21時 ACST
風向・風速東 5m/s
視程10km以上
なし
24日16時 ACST から
風向・風速北 4m/s
視程10km以上
天気現象
なし
24日20時 ACST から
風向・風速南東 3m/s
視程10km以上
天気現象
なし
25日9時 ACST から
風向・風速東南東 7m/s
視程10km以上
天気現象運行に影響にある天気現象が終了
なし
25日16時 ACST から
風向・風速北 4m/s
視程10km以上
なし
TAF YPDN 240505Z 2406/2512 09010KT CAVOK
FM240700 35007KT 9999 FU NSC
FM241100 14005KT 9999 FU NSC
FM250000 11013KT 9999 NSW NSC
FM250700 35007KT CAVOK